sensor_id;sensor_type;location;lat;lon;timestamp;pressure;altitude;pressure_sealevel;temperature;humidity
63903;BME280;50072;50.678;13.938;2023-02-17T00:01:53;100246.25;;;1.12;97.04
63903;BME280;50072;50.678;13.938;2023-02-17T00:04:33;100234.09;;;1.17;96.73
63903;BME280;50072;50.678;13.938;2023-02-17T00:07:02;100239.28;;;1.14;96.02
63903;BME280;50072;50.678;13.938;2023-02-17T00:09:29;100238.97;;;1.00;96.69
63903;BME280;50072;50.678;13.938;2023-02-17T00:12:04;100233.88;;;1.08;96.83
63903;BME280;50072;50.678;13.938;2023-02-17T00:14:33;100228.81;;;1.17;96.11
63903;BME280;50072;50.678;13.938;2023-02-17T00:17:04;100239.28;;;1.14;96.30
63903;BME280;50072;50.678;13.938;2023-02-17T00:19:32;100242.06;;;1.20;96.27
63903;BME280;50072;50.678;13.938;2023-02-17T00:22:04;100238.69;;;1.28;95.43
63903;BME280;50072;50.678;13.938;2023-02-17T00:24:39;100234.22;;;1.24;95.81
63903;BME280;50072;50.678;13.938;2023-02-17T00:27:05;100238.50;;;1.18;95.78
63903;BME280;50072;50.678;13.938;2023-02-17T00:29:34;100222.56;;;1.14;95.60
63903;BME280;50072;50.678;13.938;2023-02-17T00:32:04;100228.88;;;1.20;95.60
63903;BME280;50072;50.678;13.938;2023-02-17T00:34:36;100232.56;;;1.29;94.71
63903;BME280;50072;50.678;13.938;2023-02-17T00:37:04;100240.44;;;1.27;94.84
63903;BME280;50072;50.678;13.938;2023-02-17T00:39:29;100229.69;;;1.18;94.83
63903;BME280;50072;50.678;13.938;2023-02-17T00:42:01;100228.75;;;1.14;95.37
63903;BME280;50072;50.678;13.938;2023-02-17T00:44:28;100229.63;;;1.15;94.67
63903;BME280;50072;50.678;13.938;2023-02-17T00:47:03;100221.69;;;1.13;95.61
63903;BME280;50072;50.678;13.938;2023-02-17T00:49:33;100213.00;;;1.17;95.81
63903;BME280;50072;50.678;13.938;2023-02-17T00:52:02;100210.44;;;1.22;95.86
63903;BME280;50072;50.678;13.938;2023-02-17T00:54:29;100216.69;;;1.26;95.49
63903;BME280;50072;50.678;13.938;2023-02-17T00:56:58;100207.75;;;1.19;94.97
63903;BME280;50072;50.678;13.938;2023-02-17T00:59:24;100207.50;;;1.08;95.50
63903;BME280;50072;50.678;13.938;2023-02-17T01:02:04;100214.56;;;1.09;96.14
63903;BME280;50072;50.678;13.938;2023-02-17T01:04:32;100213.22;;;0.87;96.41
63903;BME280;50072;50.678;13.938;2023-02-17T01:07:04;100215.50;;;0.73;96.72
63903;BME280;50072;50.678;13.938;2023-02-17T01:09:35;100199.16;;;0.88;96.66
63903;BME280;50072;50.678;13.938;2023-02-17T01:12:03;100186.84;;;0.87;96.10
63903;BME280;50072;50.678;13.938;2023-02-17T01:15:04;100196.56;;;0.90;96.88
63903;BME280;50072;50.678;13.938;2023-02-17T01:17:54;100210.63;;;0.90;96.64
63903;BME280;50072;50.678;13.938;2023-02-17T01:21:15;100189.44;;;0.85;96.97
63903;BME280;50072;50.678;13.938;2023-02-17T01:24:04;100201.03;;;0.94;96.88
63903;BME280;50072;50.678;13.938;2023-02-17T01:26:50;100191.47;;;0.97;96.16
63903;BME280;50072;50.678;13.938;2023-02-17T01:29:24;100188.78;;;0.94;96.07
63903;BME280;50072;50.678;13.938;2023-02-17T01:31:55;100197.41;;;0.87;96.82
63903;BME280;50072;50.678;13.938;2023-02-17T01:34:23;100182.25;;;0.78;96.48
63903;BME280;50072;50.678;13.938;2023-02-17T01:36:55;100184.72;;;0.71;97.64
63903;BME280;50072;50.678;13.938;2023-02-17T01:39:24;100182.09;;;0.71;96.60
63903;BME280;50072;50.678;13.938;2023-02-17T01:42:03;100170.75;;;0.75;97.00
63903;BME280;50072;50.678;13.938;2023-02-17T01:44:34;100157.41;;;0.67;97.32
63903;BME280;50072;50.678;13.938;2023-02-17T01:47:04;100164.50;;;0.71;96.95
63903;BME280;50072;50.678;13.938;2023-02-17T01:49:45;100147.78;;;0.67;97.39
63903;BME280;50072;50.678;13.938;2023-02-17T01:52:24;100153.66;;;0.56;97.91
63903;BME280;50072;50.678;13.938;2023-02-17T01:54:58;100146.72;;;0.61;97.54
63903;BME280;50072;50.678;13.938;2023-02-17T01:57:34;100157.19;;;0.58;97.91
63903;BME280;50072;50.678;13.938;2023-02-17T02:00:03;100154.16;;;0.41;98.33
63903;BME280;50072;50.678;13.938;2023-02-17T02:02:31;100155.91;;;0.40;98.61
63903;BME280;50072;50.678;13.938;2023-02-17T02:05:03;100145.94;;;0.27;98.95
63903;BME280;50072;50.678;13.938;2023-02-17T02:07:38;100143.00;;;0.13;99.08
63903;BME280;50072;50.678;13.938;2023-02-17T02:10:08;100141.22;;;0.13;99.09
63903;BME280;50072;50.678;13.938;2023-02-17T02:12:57;100134.44;;;0.23;98.18
63903;BME280;50072;50.678;13.938;2023-02-17T02:15:28;100124.72;;;0.21;98.57
63903;BME280;50072;50.678;13.938;2023-02-17T02:18:28;100130.94;;;0.24;98.47
63903;BME280;50072;50.678;13.938;2023-02-17T02:21:36;100121.41;;;0.28;97.73
63903;BME280;50072;50.678;13.938;2023-02-17T02:35:58;100091.16;;;0.10;98.51
63903;BME280;50072;50.678;13.938;2023-02-17T02:38:34;100076.44;;;0.19;98.37
63903;BME280;50072;50.678;13.938;2023-02-17T02:41:08;100084.28;;;0.17;98.86
63903;BME280;50072;50.678;13.938;2023-02-17T02:43:40;100062.44;;;0.21;98.34
63903;BME280;50072;50.678;13.938;2023-02-17T02:46:34;100073.94;;;0.25;98.26
63903;BME280;50072;50.678;13.938;2023-02-17T02:49:06;100078.91;;;0.12;98.31
63903;BME280;50072;50.678;13.938;2023-02-17T03:03:33;100054.72;;;0.29;98.10
63903;BME280;50072;50.678;13.938;2023-02-17T03:06:34;100071.75;;;0.45;98.51
63903;BME280;50072;50.678;13.938;2023-02-17T03:09:23;100066.50;;;0.45;97.74
63903;BME280;50072;50.678;13.938;2023-02-17T03:12:04;100058.84;;;0.56;97.46
63903;BME280;50072;50.678;13.938;2023-02-17T03:14:35;100052.72;;;0.58;97.29
63903;BME280;50072;50.678;13.938;2023-02-17T03:17:04;100051.91;;;0.61;97.32
63903;BME280;50072;50.678;13.938;2023-02-17T03:19:33;100048.50;;;0.65;96.78
63903;BME280;50072;50.678;13.938;2023-02-17T03:22:06;100051.06;;;0.62;97.28
63903;BME280;50072;50.678;13.938;2023-02-17T03:24:36;100032.34;;;0.49;97.37
63903;BME280;50072;50.678;13.938;2023-02-17T03:27:03;100036.78;;;0.50;97.44
63903;BME280;50072;50.678;13.938;2023-02-17T03:29:30;100046.31;;;0.45;98.07
63903;BME280;50072;50.678;13.938;2023-02-17T03:32:04;100047.25;;;0.47;98.15
63903;BME280;50072;50.678;13.938;2023-02-17T03:34:34;100037.78;;;0.56;97.72
63903;BME280;50072;50.678;13.938;2023-02-17T03:37:00;100035.13;;;0.56;97.74
63903;BME280;50072;50.678;13.938;2023-02-17T03:39:34;100044.66;;;0.50;97.99
63903;BME280;50072;50.678;13.938;2023-02-17T03:41:59;100050.25;;;0.64;98.08
63903;BME280;50072;50.678;13.938;2023-02-17T03:44:31;100046.19;;;0.80;97.18
63903;BME280;50072;50.678;13.938;2023-02-17T03:47:03;100039.00;;;0.73;97.52
63903;BME280;50072;50.678;13.938;2023-02-17T03:49:34;100035.66;;;0.82;96.62
63903;BME280;50072;50.678;13.938;2023-02-17T03:52:01;100045.16;;;0.74;97.10
63903;BME280;50072;50.678;13.938;2023-02-17T03:54:33;100040.94;;;0.82;97.48
63903;BME280;50072;50.678;13.938;2023-02-17T03:57:05;100035.78;;;0.88;97.23
63903;BME280;50072;50.678;13.938;2023-02-17T03:59:31;100023.53;;;0.90;96.80
63903;BME280;50072;50.678;13.938;2023-02-17T04:02:04;100024.38;;;0.88;96.77
63903;BME280;50072;50.678;13.938;2023-02-17T04:04:36;100025.28;;;0.91;96.57
63903;BME280;50072;50.678;13.938;2023-02-17T04:07:04;100036.53;;;0.82;96.56
63903;BME280;50072;50.678;13.938;2023-02-17T04:09:35;100041.03;;;0.86;96.64
63903;BME280;50072;50.678;13.938;2023-02-17T04:12:04;100033.13;;;0.86;96.16
63903;BME280;50072;50.678;13.938;2023-02-17T04:14:32;100034.03;;;0.87;96.20
63903;BME280;50072;50.678;13.938;2023-02-17T04:17:00;100034.78;;;0.81;95.61
63903;BME280;50072;50.678;13.938;2023-02-17T04:19:32;100028.56;;;0.78;96.00
63903;BME280;50072;50.678;13.938;2023-02-17T04:22:01;100025.69;;;0.67;96.29
63903;BME280;50072;50.678;13.938;2023-02-17T04:24:35;100020.25;;;0.58;96.65
63903;BME280;50072;50.678;13.938;2023-02-17T04:27:04;100025.88;;;0.33;97.99
63903;BME280;50072;50.678;13.938;2023-02-17T04:29:32;100027.59;;;0.31;98.22
63903;BME280;50072;50.678;13.938;2023-02-17T04:32:03;100022.41;;;0.36;98.59
63903;BME280;50072;50.678;13.938;2023-02-17T04:34:34;100026.28;;;0.52;98.81
63903;BME280;50072;50.678;13.938;2023-02-17T04:37:05;100020.91;;;0.47;98.58
63903;BME280;50072;50.678;13.938;2023-02-17T04:39:33;100028.84;;;0.49;98.20
63903;BME280;50072;50.678;13.938;2023-02-17T04:42:04;100029.00;;;0.57;98.49
63903;BME280;50072;50.678;13.938;2023-02-17T04:44:33;100021.25;;;0.63;98.10
63903;BME280;50072;50.678;13.938;2023-02-17T04:47:04;100023.28;;;0.78;98.21
63903;BME280;50072;50.678;13.938;2023-02-17T04:49:31;100017.44;;;0.93;97.70
63903;BME280;50072;50.678;13.938;2023-02-17T04:52:03;100008.72;;;0.97;97.81
63903;BME280;50072;50.678;13.938;2023-02-17T04:54:35;100011.47;;;1.01;97.71
63903;BME280;50072;50.678;13.938;2023-02-17T04:57:04;100005.28;;;1.01;98.08
63903;BME280;50072;50.678;13.938;2023-02-17T04:59:35;100008.03;;;1.06;97.65
63903;BME280;50072;50.678;13.938;2023-02-17T05:02:01;100014.16;;;1.05;97.19
63903;BME280;50072;50.678;13.938;2023-02-17T05:04:27;100012.44;;;1.08;97.77
63903;BME280;50072;50.678;13.938;2023-02-17T05:06:54;100000.19;;;1.10;96.88
63903;BME280;50072;50.678;13.938;2023-02-17T05:09:21;99995.78;;;1.09;97.17
63903;BME280;50072;50.678;13.938;2023-02-17T05:11:48;99982.50;;;1.03;96.93
63903;BME280;50072;50.678;13.938;2023-02-17T05:14:14;99989.22;;;0.87;97.80
63903;BME280;50072;50.678;13.938;2023-02-17T05:16:40;99991.09;;;0.93;98.66
63903;BME280;50072;50.678;13.938;2023-02-17T05:19:06;99992.91;;;0.97;98.21
63903;BME280;50072;50.678;13.938;2023-02-17T05:21:31;99992.16;;;1.04;97.97
63903;BME280;50072;50.678;13.938;2023-02-17T05:23:57;99997.50;;;1.07;98.24
63903;BME280;50072;50.678;13.938;2023-02-17T05:26:24;99997.72;;;1.19;98.50
63903;BME280;50072;50.678;13.938;2023-02-17T05:28:50;99996.97;;;1.28;98.54
63903;BME280;50072;50.678;13.938;2023-02-17T05:31:15;99989.97;;;1.29;98.35
63903;BME280;50072;50.678;13.938;2023-02-17T05:33:41;99983.09;;;1.37;98.90
63903;BME280;50072;50.678;13.938;2023-02-17T05:36:09;99972.59;;;1.40;98.35
63903;BME280;50072;50.678;13.938;2023-02-17T05:38:36;99973.50;;;1.42;98.53
63903;BME280;50072;50.678;13.938;2023-02-17T05:41:02;99974.47;;;1.47;98.43
63903;BME280;50072;50.678;13.938;2023-02-17T05:43:29;99978.13;;;1.55;97.49
63903;BME280;50072;50.678;13.938;2023-02-17T05:45:55;99972.91;;;1.59;97.33
63903;BME280;50072;50.678;13.938;2023-02-17T05:48:26;99968.47;;;1.56;96.98
63903;BME280;50072;50.678;13.938;2023-02-17T05:50:52;99968.38;;;1.50;97.17
63903;BME280;50072;50.678;13.938;2023-02-17T05:53:19;99957.78;;;1.48;97.96
63903;BME280;50072;50.678;13.938;2023-02-17T05:55:44;99970.06;;;1.48;97.78
63903;BME280;50072;50.678;13.938;2023-02-17T05:58:10;99970.91;;;1.45;97.96
63903;BME280;50072;50.678;13.938;2023-02-17T06:00:37;99964.81;;;1.49;97.93
63903;BME280;50072;50.678;13.938;2023-02-17T06:03:04;99977.41;;;1.66;97.22
63903;BME280;50072;50.678;13.938;2023-02-17T06:05:34;99973.72;;;1.56;97.08
63903;BME280;50072;50.678;13.938;2023-02-17T06:08:05;99972.06;;;1.61;96.64
63903;BME280;50072;50.678;13.938;2023-02-17T06:10:34;99967.59;;;1.55;96.33
63903;BME280;50072;50.678;13.938;2023-02-17T06:13:00;99976.41;;;1.58;96.67
63903;BME280;50072;50.678;13.938;2023-02-17T06:15:31;99972.66;;;1.43;97.10
63903;BME280;50072;50.678;13.938;2023-02-17T06:18:03;99972.44;;;1.31;98.00
63903;BME280;50072;50.678;13.938;2023-02-17T06:20:34;99973.25;;;1.28;98.38
63903;BME280;50072;50.678;13.938;2023-02-17T06:23:00;99965.53;;;1.39;98.08
63903;BME280;50072;50.678;13.938;2023-02-17T06:25:31;99962.16;;;1.46;97.95
63903;BME280;50072;50.678;13.938;2023-02-17T06:28:04;99969.88;;;1.35;97.78
63903;BME280;50072;50.678;13.938;2023-02-17T06:30:32;99972.38;;;1.28;98.19
63903;BME280;50072;50.678;13.938;2023-02-17T06:32:59;99985.50;;;1.25;98.60
63903;BME280;50072;50.678;13.938;2023-02-17T06:35:33;99964.50;;;1.31;98.45
63903;BME280;50072;50.678;13.938;2023-02-17T06:37:59;99965.59;;;1.44;98.44
63903;BME280;50072;50.678;13.938;2023-02-17T06:40:34;99970.97;;;1.48;98.90
63903;BME280;50072;50.678;13.938;2023-02-17T06:43:00;99962.31;;;1.57;98.48
63903;BME280;50072;50.678;13.938;2023-02-17T06:45:28;99971.31;;;1.68;98.36
63903;BME280;50072;50.678;13.938;2023-02-17T06:47:54;99971.41;;;1.76;98.50
63903;BME280;50072;50.678;13.938;2023-02-17T06:50:21;99975.06;;;1.84;98.11
63903;BME280;50072;50.678;13.938;2023-02-17T06:52:48;99977.84;;;1.95;97.65
63903;BME280;50072;50.678;13.938;2023-02-17T06:55:15;99976.16;;;1.99;97.02
63903;BME280;50072;50.678;13.938;2023-02-17T06:57:41;99977.00;;;1.98;97.33
63903;BME280;50072;50.678;13.938;2023-02-17T07:00:09;99975.19;;;1.95;97.69
63903;BME280;50072;50.678;13.938;2023-02-17T07:02:38;99981.38;;;1.96;97.92
63903;BME280;50072;50.678;13.938;2023-02-17T07:05:06;99970.06;;;2.03;97.73
63903;BME280;50072;50.678;13.938;2023-02-17T07:07:33;99981.41;;;1.97;97.53
63903;BME280;50072;50.678;13.938;2023-02-17T07:09:59;99987.59;;;2.01;97.66
63903;BME280;50072;50.678;13.938;2023-02-17T07:12:28;99988.56;;;2.06;96.77
63903;BME280;50072;50.678;13.938;2023-02-17T07:14:55;99983.34;;;2.11;96.87
63903;BME280;50072;50.678;13.938;2023-02-17T07:17:22;99986.16;;;2.21;97.02
63903;BME280;50072;50.678;13.938;2023-02-17T07:19:48;99979.13;;;2.23;97.09
63903;BME280;50072;50.678;13.938;2023-02-17T07:22:15;99980.91;;;2.24;96.16
63903;BME280;50072;50.678;13.938;2023-02-17T07:24:42;99973.03;;;2.29;96.29
63903;BME280;50072;50.678;13.938;2023-02-17T07:27:11;99974.91;;;2.36;97.13
63903;BME280;50072;50.678;13.938;2023-02-17T07:29:39;99973.25;;;2.46;96.09
63903;BME280;50072;50.678;13.938;2023-02-17T07:32:06;99972.41;;;2.47;95.55
63903;BME280;50072;50.678;13.938;2023-02-17T07:34:32;99968.00;;;2.49;96.02
63903;BME280;50072;50.678;13.938;2023-02-17T07:36:59;99962.72;;;2.49;95.02
63903;BME280;50072;50.678;13.938;2023-02-17T07:39:28;99967.84;;;2.35;95.74
63903;BME280;50072;50.678;13.938;2023-02-17T07:41:54;99973.03;;;2.29;95.79
63903;BME280;50072;50.678;13.938;2023-02-17T07:44:27;99977.69;;;2.47;95.58
63903;BME280;50072;50.678;13.938;2023-02-17T07:46:53;99977.78;;;2.55;95.28
63903;BME280;50072;50.678;13.938;2023-02-17T07:49:20;99963.69;;;2.54;95.34
63903;BME280;50072;50.678;13.938;2023-02-17T07:51:47;99961.88;;;2.52;95.49
63903;BME280;50072;50.678;13.938;2023-02-17T07:54:15;99953.16;;;2.57;95.74
63903;BME280;50072;50.678;13.938;2023-02-17T07:56:45;99954.97;;;2.62;95.54
63903;BME280;50072;50.678;13.938;2023-02-17T07:59:12;99955.91;;;2.67;96.10
63903;BME280;50072;50.678;13.938;2023-02-17T08:01:41;99949.78;;;2.71;95.44
63903;BME280;50072;50.678;13.938;2023-02-17T08:04:07;99952.47;;;2.75;95.26
63903;BME280;50072;50.678;13.938;2023-02-17T08:06:34;99949.81;;;2.74;95.15
63903;BME280;50072;50.678;13.938;2023-02-17T08:09:03;99951.50;;;2.69;95.51
63903;BME280;50072;50.678;13.938;2023-02-17T08:11:49;99941.75;;;2.62;95.92
63903;BME280;50072;50.678;13.938;2023-02-17T08:14:33;99939.09;;;2.62;96.21
63903;BME280;50072;50.678;13.938;2023-02-17T08:16:59;99929.41;;;2.62;95.88
63903;BME280;50072;50.678;13.938;2023-02-17T08:19:26;99924.03;;;2.53;96.20
63903;BME280;50072;50.678;13.938;2023-02-17T08:21:53;99929.34;;;2.56;96.40
63903;BME280;50072;50.678;13.938;2023-02-17T08:24:19;99916.91;;;2.46;96.64
63903;BME280;50072;50.678;13.938;2023-02-17T08:26:49;99920.56;;;2.55;97.33
63903;BME280;50072;50.678;13.938;2023-02-17T08:29:17;99918.13;;;2.75;97.39
63903;BME280;50072;50.678;13.938;2023-02-17T08:31:51;99918.28;;;2.89;96.66
63903;BME280;50072;50.678;13.938;2023-02-17T08:34:19;99934.22;;;2.99;95.94
63903;BME280;50072;50.678;13.938;2023-02-17T08:36:45;99947.53;;;3.08;95.71
63903;BME280;50072;50.678;13.938;2023-02-17T08:39:13;99957.22;;;3.10;95.44
63903;BME280;50072;50.678;13.938;2023-02-17T08:41:41;99954.66;;;3.15;94.88
63903;BME280;50072;50.678;13.938;2023-02-17T08:44:14;99944.00;;;3.10;94.38
63903;BME280;50072;50.678;13.938;2023-02-17T08:46:44;99937.91;;;3.16;94.40
63903;BME280;50072;50.678;13.938;2023-02-17T08:49:14;99935.34;;;3.24;93.95
63903;BME280;50072;50.678;13.938;2023-02-17T08:51:42;99936.22;;;3.24;93.82
63903;BME280;50072;50.678;13.938;2023-02-17T08:54:11;99937.88;;;3.15;93.44
63903;BME280;50072;50.678;13.938;2023-02-17T08:56:38;99934.50;;;3.30;94.00
63903;BME280;50072;50.678;13.938;2023-02-17T08:59:06;99939.81;;;3.30;92.67
63903;BME280;50072;50.678;13.938;2023-02-17T09:01:36;99936.19;;;3.21;93.53
63903;BME280;50072;50.678;13.938;2023-02-17T09:04:05;99939.81;;;3.30;93.87
63903;BME280;50072;50.678;13.938;2023-02-17T09:06:40;99941.66;;;3.43;93.69
63903;BME280;50072;50.678;13.938;2023-02-17T09:09:10;99936.41;;;3.49;92.90
63903;BME280;50072;50.678;13.938;2023-02-17T09:11:39;99935.47;;;3.38;93.45
63903;BME280;50072;50.678;13.938;2023-02-17T09:14:05;99933.75;;;3.44;93.87
63903;BME280;50072;50.678;13.938;2023-02-17T09:16:33;99924.16;;;3.60;94.23
63903;BME280;50072;50.678;13.938;2023-02-17T09:19:00;99924.22;;;3.67;93.17
63903;BME280;50072;50.678;13.938;2023-02-17T09:21:27;99925.97;;;3.68;92.76
63903;BME280;50072;50.678;13.938;2023-02-17T09:23:54;99912.69;;;3.63;92.92
63903;BME280;50072;50.678;13.938;2023-02-17T09:26:21;99922.34;;;3.53;92.88
63903;BME280;50072;50.678;13.938;2023-02-17T09:28:49;99922.28;;;3.45;92.86
63903;BME280;50072;50.678;13.938;2023-02-17T09:31:16;99914.38;;;3.52;93.01
63903;BME280;50072;50.678;13.938;2023-02-17T09:33:43;99901.22;;;3.58;92.63
63903;BME280;50072;50.678;13.938;2023-02-17T09:36:14;99908.28;;;3.60;93.06
63903;BME280;50072;50.678;13.938;2023-02-17T09:38:42;99904.75;;;3.61;92.42
63903;BME280;50072;50.678;13.938;2023-02-17T09:41:33;99899.47;;;3.65;92.10
63903;BME280;50072;50.678;13.938;2023-02-17T09:44:24;99895.00;;;3.56;92.46
63903;BME280;50072;50.678;13.938;2023-02-17T09:47:01;99887.06;;;3.53;93.33
63903;BME280;50072;50.678;13.938;2023-02-17T09:50:05;99882.59;;;3.47;93.09
63903;BME280;50072;50.678;13.938;2023-02-17T09:55:25;99876.56;;;3.67;94.03
63903;BME280;50072;50.678;13.938;2023-02-17T10:00:36;99884.63;;;3.84;93.15
63903;BME280;50072;50.678;13.938;2023-02-17T10:03:11;99881.06;;;3.86;92.77
63903;BME280;50072;50.678;13.938;2023-02-17T10:05:48;99885.66;;;4.15;92.59
63903;BME280;50072;50.678;13.938;2023-02-17T10:08:23;99873.34;;;4.26;92.43
63903;BME280;50072;50.678;13.938;2023-02-17T10:11:03;99876.00;;;4.25;91.46
63903;BME280;50072;50.678;13.938;2023-02-17T10:13:36;99863.69;;;4.42;91.17
63903;BME280;50072;50.678;13.938;2023-02-17T10:16:09;99864.56;;;4.46;90.31
63903;BME280;50072;50.678;13.938;2023-02-17T10:18:43;99860.19;;;4.66;90.21
63903;BME280;50072;50.678;13.938;2023-02-17T10:21:18;99845.19;;;4.79;89.92
63903;BME280;50072;50.678;13.938;2023-02-17T10:23:49;99851.41;;;4.89;89.57
63903;BME280;50072;50.678;13.938;2023-02-17T10:29:06;99837.25;;;5.04;90.04
63903;BME280;50072;50.678;13.938;2023-02-17T10:31:44;99845.19;;;5.09;90.23
63903;BME280;50072;50.678;13.938;2023-02-17T10:34:36;99833.72;;;5.05;90.75
63903;BME280;50072;50.678;13.938;2023-02-17T10:37:13;99826.63;;;5.04;91.96
63903;BME280;50072;50.678;13.938;2023-02-17T10:39:54;99823.09;;;4.94;91.28
63903;BME280;50072;50.678;13.938;2023-02-17T10:42:33;99822.22;;;4.86;91.87
63903;BME280;50072;50.678;13.938;2023-02-17T10:47:47;99805.44;;;4.96;92.59
63903;BME280;50072;50.678;13.938;2023-02-17T10:50:24;99797.47;;;5.15;92.69
63903;BME280;50072;50.678;13.938;2023-02-17T10:52:53;99789.47;;;5.21;92.77
63903;BME280;50072;50.678;13.938;2023-02-17T11:01:04;99772.66;;;5.38;90.64
63903;BME280;50072;50.678;13.938;2023-02-17T11:03:34;99756.72;;;5.31;90.48
63903;BME280;50072;50.678;13.938;2023-02-17T11:06:21;99754.97;;;5.23;91.93
63903;BME280;50072;50.678;13.938;2023-02-17T11:08:57;99737.28;;;5.20;93.24
63903;BME280;50072;50.678;13.938;2023-02-17T11:11:26;99732.00;;;5.20;93.13
63903;BME280;50072;50.678;13.938;2023-02-17T11:16:46;99741.75;;;5.13;92.79
63903;BME280;50072;50.678;13.938;2023-02-17T11:19:33;99742.66;;;5.08;92.91
63903;BME280;50072;50.678;13.938;2023-02-17T11:22:36;99725.81;;;5.29;93.66
63903;BME280;50072;50.678;13.938;2023-02-17T11:25:23;99720.44;;;5.46;93.52
63903;BME280;50072;50.678;13.938;2023-02-17T11:27:56;99717.72;;;5.60;93.50
63903;BME280;50072;50.678;13.938;2023-02-17T11:30:25;99718.56;;;5.71;92.88
63903;BME280;50072;50.678;13.938;2023-02-17T11:32:54;99717.63;;;5.83;93.13
63903;BME280;50072;50.678;13.938;2023-02-17T11:38:18;99697.16;;;6.07;91.63
63903;BME280;50072;50.678;13.938;2023-02-17T11:43:20;99694.44;;;6.17;91.90
63903;BME280;50072;50.678;13.938;2023-02-17T11:52:21;99674.84;;;6.29;91.07
63903;BME280;50072;50.678;13.938;2023-02-17T11:55:14;99682.00;;;6.21;90.78
63903;BME280;50072;50.678;13.938;2023-02-17T11:57:51;99671.31;;;6.30;89.45
63903;BME280;50072;50.678;13.938;2023-02-17T12:00:21;99653.56;;;6.32;90.17
63903;BME280;50072;50.678;13.938;2023-02-17T12:05:50;99649.91;;;6.46;91.39
63903;BME280;50072;50.678;13.938;2023-02-17T12:08:49;99650.56;;;6.71;90.63
63903;BME280;50072;50.678;13.938;2023-02-17T12:13:59;99648.72;;;6.78;91.23
63903;BME280;50072;50.678;13.938;2023-02-17T12:24:48;99636.16;;;6.92;91.69
63903;BME280;50072;50.678;13.938;2023-02-17T12:35:22;99622.63;;;7.12;90.39
63903;BME280;50072;50.678;13.938;2023-02-17T12:37:58;99617.31;;;7.11;90.27
63903;BME280;50072;50.678;13.938;2023-02-17T12:42:59;99604.94;;;7.06;90.20
63903;BME280;50072;50.678;13.938;2023-02-17T12:45:40;99601.50;;;7.01;90.63
63903;BME280;50072;50.678;13.938;2023-02-17T12:48:36;99599.88;;;6.85;91.79
63903;BME280;50072;50.678;13.938;2023-02-17T12:51:10;99600.78;;;6.82;91.64
63903;BME280;50072;50.678;13.938;2023-02-17T12:53:49;99585.81;;;6.75;92.75
63903;BME280;50072;50.678;13.938;2023-02-17T12:58:55;99577.84;;;6.72;93.72
63903;BME280;50072;50.678;13.938;2023-02-17T13:01:29;99572.47;;;6.77;94.88
63903;BME280;50072;50.678;13.938;2023-02-17T13:03:58;99559.16;;;6.78;95.14
63903;BME280;50072;50.678;13.938;2023-02-17T13:06:33;99559.06;;;6.89;95.08
63903;BME280;50072;50.678;13.938;2023-02-17T13:11:47;99545.59;;;7.03;95.15
63903;BME280;50072;50.678;13.938;2023-02-17T13:14:39;99547.16;;;7.18;95.44
63903;BME280;50072;50.678;13.938;2023-02-17T13:17:05;99547.03;;;7.29;95.12
63903;BME280;50072;50.678;13.938;2023-02-17T13:19:33;99539.84;;;7.32;94.31
63903;BME280;50072;50.678;13.938;2023-02-17T13:22:00;99547.63;;;7.48;94.59
63903;BME280;50072;50.678;13.938;2023-02-17T13:24:52;99549.56;;;7.36;94.75
63903;BME280;50072;50.678;13.938;2023-02-17T13:32:43;99524.53;;;8.06;100.00
63903;BME280;50072;50.678;13.938;2023-02-17T13:37:49;99513.44;;;8.77;98.43
63903;BME280;50072;50.678;13.938;2023-02-17T13:42:48;99496.56;;;9.18;96.38
63903;BME280;50072;50.678;13.938;2023-02-17T13:45:30;99487.25;;;9.37;95.57
63903;BME280;50072;50.678;13.938;2023-02-17T13:48:10;99485.03;;;9.55;95.00
63903;BME280;50072;50.678;13.938;2023-02-17T13:50:46;99467.03;;;9.63;94.72
63903;BME280;50072;50.678;13.938;2023-02-17T13:53:34;99474.31;;;9.58;95.07
63903;BME280;50072;50.678;13.938;2023-02-17T13:56:11;99471.69;;;9.55;95.20
63903;BME280;50072;50.678;13.938;2023-02-17T13:58:47;99457.31;;;9.60;95.47
63903;BME280;50072;50.678;13.938;2023-02-17T14:01:22;99455.44;;;9.64;95.16
63903;BME280;50072;50.678;13.938;2023-02-17T14:03:54;99452.53;;;9.73;95.23
63903;BME280;50072;50.678;13.938;2023-02-17T14:06:29;99472.13;;;9.74;94.85
63903;BME280;50072;50.678;13.938;2023-02-17T14:08:56;99475.50;;;9.82;94.47
63903;BME280;50072;50.678;13.938;2023-02-17T14:11:26;99478.88;;;9.89;94.33
63903;BME280;50072;50.678;13.938;2023-02-17T14:13:58;99459.44;;;9.83;94.65
63903;BME280;50072;50.678;13.938;2023-02-17T14:16:29;99474.34;;;9.92;94.59
63903;BME280;50072;50.678;13.938;2023-02-17T14:19:15;99467.31;;;9.88;94.70
63903;BME280;50072;50.678;13.938;2023-02-17T14:22:03;99463.53;;;9.97;94.33
63903;BME280;50072;50.678;13.938;2023-02-17T14:24:34;99463.72;;;10.24;93.05
63903;BME280;50072;50.678;13.938;2023-02-17T14:27:10;99457.38;;;10.28;93.04
63903;BME280;50072;50.678;13.938;2023-02-17T14:29:48;99448.06;;;10.43;92.10
63903;BME280;50072;50.678;13.938;2023-02-17T14:32:30;99447.94;;;10.47;91.79
63903;BME280;50072;50.678;13.938;2023-02-17T14:35:30;99449.69;;;10.48;92.18
63903;BME280;50072;50.678;13.938;2023-02-17T14:38:22;99435.69;;;10.39;92.13
63903;BME280;50072;50.678;13.938;2023-02-17T14:40:48;99442.00;;;10.36;91.78
63903;BME280;50072;50.678;13.938;2023-02-17T14:43:15;99424.28;;;10.32;92.06
63903;BME280;50072;50.678;13.938;2023-02-17T14:45:41;99420.84;;;10.27;92.35
63903;BME280;50072;50.678;13.938;2023-02-17T14:48:09;99423.50;;;10.27;92.32
63903;BME280;50072;50.678;13.938;2023-02-17T14:50:35;99432.44;;;10.26;92.61
63903;BME280;50072;50.678;13.938;2023-02-17T14:53:12;99418.97;;;10.29;92.27
63903;BME280;50072;50.678;13.938;2023-02-17T14:55:45;99418.88;;;10.33;92.08
63903;BME280;50072;50.678;13.938;2023-02-17T14:58:19;99423.47;;;10.28;92.56